Time;durP1;ratioP1;P1;durP2;ratioP2;P2;SDS_P1;SDS_P2;PMS_P1;PMS_P2;Temp;Humidity;BMP_temperature;BMP_pressure;BME280_temperature;BME280_humidity;BME280_pressure;Samples;Min_cycle;Max_cycle;Signal;HPM_P1;HPM_P2
2021/12/08 00:00:38;;;;;;;;;;;;;;;-2.74;79.08;100238.55;1806212;78;21020;-79
2021/12/08 00:03:08;;;;;;;;;;;;;;;-2.68;79.35;100240.03;1800993;79;20587;-78
2021/12/08 00:05:34;;;;;;;;;;;;;;;-2.81;79.29;100235.02;1802413;78;20102;-79
2021/12/08 00:08:00;;;;;;;;;;;;;;;-2.92;79.57;100227.31;1803833;78;20138;-80
2021/12/08 00:13:07;;;;;;;;;;;;;;;-2.60;79.29;100222.41;1765916;79;20156;-78
2021/12/08 00:15:41;;;;;;;;;;;;;;;-2.61;79.03;100213.01;1807906;79;20146;-80
2021/12/08 00:18:10;;;;;;;;;;;;;;;-2.57;78.83;100209.34;1795098;79;20155;-79
2021/12/08 00:20:36;;;;;;;;;;;;;;;-2.59;78.82;100217.64;1775740;79;20108;-79
2021/12/08 00:23:03;;;;;;;;;;;;;;;-2.68;79.01;100227.11;1799468;79;20200;-78
2021/12/08 00:25:29;;;;;;;;;;;;;;;-2.67;79.23;100226.64;1800013;79;21023;-79
2021/12/08 00:27:57;;;;;;;;;;;;;;;-2.82;79.67;100232.90;1798870;79;20146;-79
2021/12/08 00:30:22;;;;;;;;;;;;;;;-2.90;79.86;100225.48;1771021;79;20507;-78
2021/12/08 00:32:48;;;;;;;;;;;;;;;-2.78;79.89;100228.42;1800875;79;20184;-78
2021/12/08 00:35:14;;;;;;;;;;;;;;;-2.65;79.48;100228.73;1801452;79;20138;-79
2021/12/08 00:37:41;;;;;;;;;;;;;;;-2.56;79.08;100231.72;1804221;79;21093;-79
2021/12/08 00:40:08;;;;;;;;;;;;;;;-2.62;79.15;100234.58;1799080;79;20526;-78
2021/12/08 00:42:36;;;;;;;;;;;;;;;-2.53;78.63;100234.63;1802188;79;20098;-80
2021/12/08 00:45:03;;;;;;;;;;;;;;;-2.50;78.70;100236.22;1778366;79;20230;-79
2021/12/08 00:47:29;;;;;;;;;;;;;;;-2.43;78.52;100242.80;1798043;79;20178;-80
2021/12/08 00:49:55;;;;;;;;;;;;;;;-2.52;78.57;100240.16;1800553;79;21093;-79
2021/12/08 00:52:20;;;;;;;;;;;;;;;-2.44;78.40;100246.27;1795896;79;20467;-82
2021/12/08 00:54:46;;;;;;;;;;;;;;;-2.53;78.62;100238.05;1774807;79;20158;-81
2021/12/08 00:57:15;;;;;;;;;;;;;;;-2.76;79.23;100241.67;1801844;79;20175;-80
2021/12/08 00:59:41;;;;;;;;;;;;;;;-2.99;79.62;100242.69;1796474;79;20467;-80
2021/12/08 01:02:06;;;;;;;;;;;;;;;-2.94;79.71;100240.73;1800670;79;21072;-80
2021/12/08 01:04:33;;;;;;;;;;;;;;;-3.13;80.07;100238.59;1798010;78;20447;-79
2021/12/08 01:06:59;;;;;;;;;;;;;;;-3.19;80.80;100233.69;1780659;78;20189;-81
2021/12/08 01:09:25;;;;;;;;;;;;;;;-3.09;80.66;100236.27;1744133;80;20164;-80
2021/12/08 01:11:54;;;;;;;;;;;;;;;-3.09;80.83;100237.56;1768822;80;20135;-80
2021/12/08 01:14:21;;;;;;;;;;;;;;;-3.21;81.45;100234.21;1774994;80;20145;-80
2021/12/08 01:16:46;;;;;;;;;;;;;;;-3.29;81.84;100226.80;1775897;80;20266;-80
2021/12/08 01:19:12;;;;;;;;;;;;;;;-3.19;82.22;100224.64;1773555;79;20159;-81
2021/12/08 01:21:38;;;;;;;;;;;;;;;-3.28;81.87;100218.98;1766343;79;20871;-81
2021/12/08 01:24:04;;;;;;;;;;;;;;;-3.23;82.01;100225.67;1764351;80;20124;-81
2021/12/08 01:26:29;;;;;;;;;;;;;;;-3.23;82.29;100221.80;1765937;81;21062;-81
2021/12/08 01:28:57;;;;;;;;;;;;;;;-3.25;82.16;100221.44;1765305;81;20394;-81
2021/12/08 01:31:27;;;;;;;;;;;;;;;-3.29;82.37;100214.71;1731383;81;20140;-78
2021/12/08 01:33:54;;;;;;;;;;;;;;;-3.18;82.14;100214.71;1761046;80;20435;-81
2021/12/08 01:36:20;;;;;;;;;;;;;;;-3.33;82.17;100210.58;1766119;79;20616;-82
2021/12/08 01:38:45;;;;;;;;;;;;;;;-3.16;81.90;100218.05;1769288;79;21174;-78
2021/12/08 01:41:13;;;;;;;;;;;;;;;-3.21;81.65;100223.88;1765011;80;20303;-81
2021/12/08 01:46:27;;;;;;;;;;;;;;;-3.23;82.01;100224.38;1764799;80;20143;-81
2021/12/08 01:48:53;;;;;;;;;;;;;;;-3.11;81.69;100215.67;1766012;80;20180;-80
2021/12/08 01:51:18;;;;;;;;;;;;;;;-2.95;81.31;100216.25;1763623;81;21085;-81
2021/12/08 01:53:50;;;;;;;;;;;;;;;-2.92;80.72;100214.39;1760378;79;21441;-81
2021/12/08 01:56:16;;;;;;;;;;;;;;;-2.86;80.33;100213.72;1766269;79;20489;-80
2021/12/08 01:58:42;;;;;;;;;;;;;;;-2.84;80.13;100210.17;1767345;80;20527;-80
2021/12/08 02:01:10;;;;;;;;;;;;;;;-2.78;79.83;100196.97;1765864;81;20142;-80
2021/12/08 02:03:35;;;;;;;;;;;;;;;-2.72;79.51;100202.30;1764198;80;21134;-80
2021/12/08 02:06:02;;;;;;;;;;;;;;;-2.76;79.18;100194.32;1774286;78;20208;-80
2021/12/08 02:08:30;;;;;;;;;;;;;;;-2.72;79.18;100189.37;1817642;78;20187;-79
2021/12/08 02:10:59;;;;;;;;;;;;;;;-2.80;79.08;100192.77;1812684;78;20713;-80
2021/12/08 02:13:27;;;;;;;;;;;;;;;-2.92;79.76;100195.45;1813609;77;20175;-80
2021/12/08 02:15:53;;;;;;;;;;;;;;;-2.96;79.66;100191.34;1816101;77;21163;-79
2021/12/08 02:18:18;;;;;;;;;;;;;;;-3.00;79.54;100186.75;1825049;77;20136;-81
2021/12/08 02:20:46;;;;;;;;;;;;;;;-3.02;79.95;100180.81;1817839;77;20488;-81
2021/12/08 02:23:12;;;;;;;;;;;;;;;-3.03;79.77;100168.83;1823698;77;20167;-80
2021/12/08 02:25:37;;;;;;;;;;;;;;;-2.93;79.66;100171.36;1819943;77;20284;-82
2021/12/08 02:28:04;;;;;;;;;;;;;;;-2.85;79.76;100166.31;1785055;77;20884;-80
2021/12/08 02:30:38;;;;;;;;;;;;;;;-2.79;79.46;100169.44;1816414;77;20195;-79
2021/12/08 02:46:48;;;;;;;;;;;;;;;-3.01;80.35;100173.47;1819031;77;20135;-80
2021/12/08 02:49:11;;;;;;;;;;;;;;;-3.11;80.64;100170.90;1816792;77;20139;-81
2021/12/08 02:51:38;;;;;;;;;;;;;;;-2.98;80.45;100166.87;1824182;77;20328;-79
2021/12/08 02:54:04;;;;;;;;;;;;;;;-2.98;80.05;100169.45;1821712;77;21290;-80
2021/12/08 02:56:32;;;;;;;;;;;;;;;-2.81;79.91;100163.95;1826665;77;20142;-78
2021/12/08 02:58:59;;;;;;;;;;;;;;;-2.80;79.83;100164.34;1824032;77;20498;-82
2021/12/08 03:01:27;;;;;;;;;;;;;;;-2.79;79.73;100155.70;1790888;77;21268;-81
2021/12/08 03:03:52;;;;;;;;;;;;;;;-2.69;79.56;100156.09;1815580;77;20246;-81
2021/12/08 03:06:18;;;;;;;;;;;;;;;-2.79;79.65;100161.69;1802369;78;21156;-81
2021/12/08 03:08:44;;;;;;;;;;;;;;;-2.74;79.61;100160.19;1763591;81;20244;-81
2021/12/08 03:11:09;;;;;;;;;;;;;;;-2.69;79.69;100165.14;1764098;81;20142;-82
2021/12/08 03:13:41;;;;;;;;;;;;;;;-2.58;79.55;100165.04;1761863;81;20731;-81
2021/12/08 03:16:11;;;;;;;;;;;;;;;-2.54;79.24;100167.84;1764615;80;20195;-81
2021/12/08 03:18:38;;;;;;;;;;;;;;;-2.59;79.19;100168.52;1763976;81;21132;-81
2021/12/08 03:21:06;;;;;;;;;;;;;;;-2.66;79.51;100166.30;1761292;81;20193;-81
2021/12/08 03:23:46;;;;;;;;;;;;;;;-2.74;79.52;100164.06;1762698;80;20592;-80
2021/12/08 03:26:05;;;;;;;;;;;;;;;-2.71;79.85;100162.63;1767255;80;20136;-81
2021/12/08 03:28:34;;;;;;;;;;;;;;;-2.67;79.54;100165.47;1772922;80;20100;-80
2021/12/08 03:31:09;;;;;;;;;;;;;;;-2.71;79.45;100169.09;1758032;80;20192;-79
2021/12/08 03:33:31;;;;;;;;;;;;;;;-2.67;79.48;100175.80;1761794;81;20190;-80
2021/12/08 03:35:58;;;;;;;;;;;;;;;-2.77;79.40;100173.25;1764101;80;20160;-80
2021/12/08 03:38:25;;;;;;;;;;;;;;;-3.00;79.86;100173.83;1736545;81;20184;-80
2021/12/08 03:40:51;;;;;;;;;;;;;;;-2.93;80.19;100170.07;1766483;79;20615;-80
2021/12/08 03:43:20;;;;;;;;;;;;;;;-2.82;79.35;100166.17;1768384;79;21118;-81
2021/12/08 03:45:47;;;;;;;;;;;;;;;-2.68;78.71;100166.83;1758680;81;21137;-80
2021/12/08 03:48:19;;;;;;;;;;;;;;;-2.74;78.54;100166.19;1751668;81;20684;-80
2021/12/08 03:50:45;;;;;;;;;;;;;;;-2.81;78.70;100160.08;1752010;81;20168;-82
2021/12/08 03:53:12;;;;;;;;;;;;;;;-2.73;78.67;100168.33;1758528;81;20205;-81
2021/12/08 03:55:41;;;;;;;;;;;;;;;-2.76;78.50;100164.59;1759988;80;21126;-80
2021/12/08 03:58:10;;;;;;;;;;;;;;;-2.89;78.63;100157.41;1767942;79;20235;-81
2021/12/08 04:00:38;;;;;;;;;;;;;;;-2.94;78.97;100146.89;1764997;79;20200;-79
2021/12/08 04:03:06;;;;;;;;;;;;;;;-2.85;78.61;100146.47;1754501;80;20526;-79
2021/12/08 04:05:45;;;;;;;;;;;;;;;-2.96;78.79;100146.95;1750447;81;20149;-78
2021/12/08 04:08:05;;;;;;;;;;;;;;;-2.86;78.54;100146.54;1786549;78;20505;-81
2021/12/08 04:10:29;;;;;;;;;;;;;;;-2.90;78.27;100149.27;1800706;78;20161;-81
2021/12/08 04:12:56;;;;;;;;;;;;;;;-2.89;78.36;100149.66;1782858;78;20143;-81
2021/12/08 04:15:23;;;;;;;;;;;;;;;-2.83;78.03;100145.94;1804154;78;20823;-82
2021/12/08 04:17:50;;;;;;;;;;;;;;;-3.02;78.04;100147.23;1803479;78;20197;-81
2021/12/08 04:20:20;;;;;;;;;;;;;;;-2.99;78.21;100148.39;1814901;77;21075;-79
2021/12/08 04:22:48;;;;;;;;;;;;;;;-2.97;78.12;100147.03;1780650;77;20157;-79
2021/12/08 04:25:17;;;;;;;;;;;;;;;-3.08;78.09;100132.02;1763103;78;20147;-80
2021/12/08 04:27:43;;;;;;;;;;;;;;;-2.98;77.81;100135.87;1805658;78;20236;-79
2021/12/08 04:30:18;;;;;;;;;;;;;;;-2.94;77.90;100134.80;1820938;77;20191;-79
2021/12/08 04:32:43;;;;;;;;;;;;;;;-2.93;77.93;100136.48;1800599;77;22211;-80
2021/12/08 04:35:10;;;;;;;;;;;;;;;-3.11;77.96;100134.73;1811841;78;20147;-79
2021/12/08 04:37:37;;;;;;;;;;;;;;;-3.19;78.49;100134.25;1820692;77;20192;-79
2021/12/08 04:40:47;;;;;;;;;;;;;;;;;;;;;
2021/12/08 04:45:28;;;;;;;;;;;;;;;-3.31;78.37;100132.61;1772253;79;20096;-81
2021/12/08 04:48:09;;;;;;;;;;;;;;;-3.17;78.03;100135.87;1797926;77;20604;-81
2021/12/08 04:50:32;;;;;;;;;;;;;;;-3.30;77.96;100132.98;1797050;78;20126;-79
2021/12/08 05:06:59;;;;;;;;;;;;;;;-3.78;78.91;100123.89;1813848;78;20223;-79
2021/12/08 05:09:21;;;;;;;;;;;;;;;-3.59;79.16;100133.42;1807998;78;20122;-78
2021/12/08 05:11:51;;;;;;;;;;;;;;;-3.72;79.30;100139.11;1819426;77;22389;-80
2021/12/08 05:14:28;;;;;;;;;;;;;;;-3.80;79.55;100132.16;1810801;77;20135;-81
2021/12/08 05:16:58;;;;;;;;;;;;;;;-3.94;80.22;100128.05;1808647;78;20092;-80
2021/12/08 05:19:27;;;;;;;;;;;;;;;-3.73;80.00;100123.23;1808294;78;20161;-78
2021/12/08 05:22:05;;;;;;;;;;;;;;;-3.70;79.70;100121.81;1804142;77;20591;-77
2021/12/08 05:24:35;;;;;;;;;;;;;;;-3.65;79.87;100119.03;1824548;77;20796;-79
2021/12/08 05:27:13;;;;;;;;;;;;;;;-3.74;79.31;100115.13;1820896;77;20173;-79
2021/12/08 05:29:43;;;;;;;;;;;;;;;-3.78;79.39;100118.73;1813353;77;20128;-79
2021/12/08 05:32:09;;;;;;;;;;;;;;;-3.82;78.20;100114.63;1809435;77;20174;-78
2021/12/08 05:34:35;;;;;;;;;;;;;;;-3.74;77.68;100113.84;1807630;77;20177;-78
2021/12/08 05:37:01;;;;;;;;;;;;;;;-3.76;76.78;100111.75;1803036;77;21082;-78
2021/12/08 05:39:28;;;;;;;;;;;;;;;-3.76;76.09;100116.91;1792624;78;20116;-80
2021/12/08 05:41:58;;;;;;;;;;;;;;;-3.74;76.05;100116.84;1813215;78;20317;-79
2021/12/08 05:44:24;;;;;;;;;;;;;;;-3.68;75.05;100120.02;1802670;78;20578;-78
2021/12/08 05:46:53;;;;;;;;;;;;;;;-3.70;74.30;100124.85;1801526;77;20243;-78
2021/12/08 05:49:19;;;;;;;;;;;;;;;-3.64;73.98;100131.04;1816401;78;20458;-78
2021/12/08 05:51:46;;;;;;;;;;;;;;;-3.77;74.28;100134.61;1808965;78;20198;-79
2021/12/08 05:54:15;;;;;;;;;;;;;;;-3.67;74.40;100135.87;1810611;77;20207;-79
2021/12/08 05:56:41;;;;;;;;;;;;;;;-3.58;74.22;100137.69;1813117;78;21368;-77
2021/12/08 05:59:07;;;;;;;;;;;;;;;-3.67;73.56;100134.58;1797456;77;20119;-79
2021/12/08 06:01:40;;;;;;;;;;;;;;;-3.44;73.45;100131.47;1797798;78;21183;-78
2021/12/08 06:04:07;;;;;;;;;;;;;;;-3.34;73.15;100131.45;1812688;77;20141;-81
2021/12/08 06:06:33;;;;;;;;;;;;;;;-3.56;72.53;100128.13;1809143;78;20446;-78
2021/12/08 06:09:00;;;;;;;;;;;;;;;-3.66;72.54;100123.36;1810692;78;20234;-79
2021/12/08 06:11:31;;;;;;;;;;;;;;;-3.71;72.62;100129.19;1813340;78;20566;-79
2021/12/08 06:14:00;;;;;;;;;;;;;;;-3.80;72.78;100118.80;1806486;78;20181;-80
2021/12/08 06:16:27;;;;;;;;;;;;;;;-3.71;72.79;100123.16;1794427;77;20125;-80
2021/12/08 06:18:53;;;;;;;;;;;;;;;-3.80;72.69;100120.55;1813478;77;20212;-80
2021/12/08 06:21:21;;;;;;;;;;;;;;;-4.03;72.83;100127.50;1814885;78;20159;-82
2021/12/08 06:23:47;;;;;;;;;;;;;;;-4.02;72.38;100130.94;1816764;78;20236;-80
2021/12/08 06:26:14;;;;;;;;;;;;;;;-4.05;72.19;100139.63;1810404;77;22296;-79
2021/12/08 06:28:40;;;;;;;;;;;;;;;-4.08;72.32;100135.89;1812493;78;20153;-78
2021/12/08 06:31:07;;;;;;;;;;;;;;;-4.08;72.29;100129.44;1801999;78;20425;-81
2021/12/08 06:33:33;;;;;;;;;;;;;;;-4.09;72.33;100123.88;1804273;78;20171;-81
2021/12/08 06:36:02;;;;;;;;;;;;;;;-4.02;72.61;100130.94;1805530;78;21184;-81
2021/12/08 06:38:28;;;;;;;;;;;;;;;-4.08;72.22;100137.17;1814448;78;20946;-81
2021/12/08 06:40:57;;;;;;;;;;;;;;;-4.13;72.67;100140.41;1811022;78;20799;-82
2021/12/08 06:43:28;;;;;;;;;;;;;;;-4.27;72.64;100142.69;1806455;78;20165;-80
2021/12/08 06:45:55;;;;;;;;;;;;;;;-4.18;72.89;100149.62;1810734;78;20145;-80
2021/12/08 06:48:23;;;;;;;;;;;;;;;-4.16;72.96;100145.23;1812517;78;20175;-79
2021/12/08 06:50:52;;;;;;;;;;;;;;;-4.10;73.06;100153.17;1814137;78;21149;-80
2021/12/08 06:53:18;;;;;;;;;;;;;;;-4.21;73.16;100156.62;1813435;78;20098;-79
2021/12/08 06:55:55;;;;;;;;;;;;;;;-4.17;73.09;100154.31;1810141;78;20117;-79
2021/12/08 06:58:24;;;;;;;;;;;;;;;-4.05;73.17;100155.11;1813035;78;20877;-80
2021/12/08 07:01:10;;;;;;;;;;;;;;;-4.04;73.21;100161.95;1807938;78;20184;-78
2021/12/08 07:04:24;;;;;;;;;;;;;;;-3.92;72.80;100167.50;1807614;78;20493;-79
2021/12/08 07:06:12;;;;;;;;;;;;;;;-3.87;72.41;100166.84;1784637;78;20125;-78
2021/12/08 07:08:48;;;;;;;;;;;;;;;-3.83;71.93;100169.70;1808513;78;20123;-80
2021/12/08 07:11:19;;;;;;;;;;;;;;;-3.97;71.66;100176.25;1813206;78;20176;-80
2021/12/08 07:13:48;;;;;;;;;;;;;;;-4.00;72.06;100187.98;1811436;78;20129;-79
2021/12/08 07:16:21;;;;;;;;;;;;;;;-3.89;72.12;100197.86;1809375;78;21179;-78
2021/12/08 07:19:00;;;;;;;;;;;;;;;-4.07;72.66;100212.36;1816551;78;20134;-79
2021/12/08 07:21:30;;;;;;;;;;;;;;;-3.95;72.99;100206.31;1803325;78;20486;-79
2021/12/08 07:23:59;;;;;;;;;;;;;;;-3.86;72.92;100205.94;1816705;78;20808;-80
2021/12/08 07:26:27;;;;;;;;;;;;;;;-3.72;72.69;100202.79;1788667;78;20205;-79
2021/12/08 07:28:54;;;;;;;;;;;;;;;-3.65;72.37;100199.89;1813251;78;21065;-79
2021/12/08 07:31:26;;;;;;;;;;;;;;;-3.55;72.31;100199.50;1810783;78;20171;-79
2021/12/08 07:33:52;;;;;;;;;;;;;;;-3.57;71.96;100196.13;1808585;77;20505;-81
2021/12/08 07:36:18;;;;;;;;;;;;;;;-3.51;71.86;100195.87;1805226;78;20125;-80
2021/12/08 07:38:49;;;;;;;;;;;;;;;-3.47;71.77;100194.84;1808619;78;20125;-81
2021/12/08 07:41:18;;;;;;;;;;;;;;;-3.51;71.57;100193.29;1803640;78;20510;-80
2021/12/08 07:43:48;;;;;;;;;;;;;;;-3.43;71.25;100196.41;1814019;78;20151;-80
2021/12/08 07:46:20;;;;;;;;;;;;;;;-3.46;71.02;100190.08;1807536;77;20615;-80
2021/12/08 07:48:50;;;;;;;;;;;;;;;-3.51;71.08;100182.97;1787414;78;21284;-80
2021/12/08 07:51:22;;;;;;;;;;;;;;;-3.58;71.00;100169.48;1821309;77;20613;-80
2021/12/08 07:53:47;;;;;;;;;;;;;;;-3.53;71.41;100169.30;1820595;78;21090;-81
2021/12/08 07:56:15;;;;;;;;;;;;;;;-3.40;71.46;100170.88;1813868;78;20125;-80
2021/12/08 07:58:45;;;;;;;;;;;;;;;-3.49;71.19;100176.02;1784670;78;20577;-78
2021/12/08 08:01:21;;;;;;;;;;;;;;;-3.39;71.55;100182.44;1813018;78;21040;-78
2021/12/08 08:03:49;;;;;;;;;;;;;;;-3.32;71.49;100183.86;1813715;78;20482;-79
2021/12/08 08:06:20;;;;;;;;;;;;;;;-3.37;71.56;100192.27;1807970;78;20518;-79
2021/12/08 08:08:47;;;;;;;;;;;;;;;-3.44;71.93;100187.80;1805162;78;20631;-78
2021/12/08 08:11:26;;;;;;;;;;;;;;;-3.45;71.87;100188.72;1811305;78;20606;-79
2021/12/08 08:13:52;;;;;;;;;;;;;;;-3.30;71.74;100178.16;1803274;78;20201;-81
2021/12/08 08:16:21;;;;;;;;;;;;;;;-3.15;71.46;100174.08;1812137;77;20223;-80
2021/12/08 08:18:53;;;;;;;;;;;;;;;-3.10;71.45;100174.70;1806080;77;23402;-79
2021/12/08 08:21:22;;;;;;;;;;;;;;;-3.22;71.69;100169.25;1817172;77;20160;-79
2021/12/08 08:23:49;;;;;;;;;;;;;;;-3.16;71.85;100171.56;1808166;78;20507;-80
2021/12/08 08:26:17;;;;;;;;;;;;;;;-3.11;71.59;100169.61;1810019;78;20125;-77
2021/12/08 08:28:46;;;;;;;;;;;;;;;-3.09;71.38;100165.23;1803616;78;20172;-78
2021/12/08 08:31:14;;;;;;;;;;;;;;;-3.03;71.42;100166.25;1815364;78;20893;-79
2021/12/08 08:33:40;;;;;;;;;;;;;;;-2.96;71.43;100163.75;1810445;78;20152;-79
2021/12/08 08:36:09;;;;;;;;;;;;;;;-3.07;71.45;100155.66;1813651;78;20122;-80
2021/12/08 08:38:40;;;;;;;;;;;;;;;-3.10;71.79;100158.38;1808908;78;20427;-79
2021/12/08 08:41:20;;;;;;;;;;;;;;;-3.21;71.93;100160.15;1805189;78;20140;-78
2021/12/08 08:43:47;;;;;;;;;;;;;;;-3.04;72.08;100169.73;1804670;78;21324;-79
2021/12/08 08:46:16;;;;;;;;;;;;;;;-3.03;71.85;100153.33;1807307;78;20147;-80
2021/12/08 08:48:46;;;;;;;;;;;;;;;-2.99;71.79;100159.19;1815328;78;20178;-77
2021/12/08 08:51:17;;;;;;;;;;;;;;;-2.93;71.72;100160.20;1803485;78;20188;-78
2021/12/08 08:53:46;;;;;;;;;;;;;;;-2.90;72.04;100159.59;1805312;78;20248;-79
2021/12/08 08:56:18;;;;;;;;;;;;;;;-2.91;72.02;100148.05;1804427;78;20108;-79
2021/12/08 08:58:47;;;;;;;;;;;;;;;-2.94;72.13;100145.13;1808372;78;20168;-80
2021/12/08 09:01:20;;;;;;;;;;;;;;;-2.82;72.05;100150.67;1810705;78;20120;-79
2021/12/08 09:03:59;;;;;;;;;;;;;;;-2.79;72.17;100146.66;1814454;77;20164;-81
2021/12/08 09:06:28;;;;;;;;;;;;;;;-2.88;72.05;100144.02;1814095;78;20161;-78
2021/12/08 09:08:56;;;;;;;;;;;;;;;-2.94;72.37;100144.30;1809228;78;21103;-79
2021/12/08 09:11:27;;;;;;;;;;;;;;;-2.89;72.36;100140.61;1817479;78;20500;-78
2021/12/08 09:14:07;;;;;;;;;;;;;;;-2.90;72.28;100129.88;1814106;78;20213;-80
2021/12/08 09:16:39;;;;;;;;;;;;;;;-2.90;72.70;100124.72;1811196;78;20510;-78
2021/12/08 09:19:13;;;;;;;;;;;;;;;-2.76;73.03;100118.08;1803713;78;20213;-78
2021/12/08 09:21:42;;;;;;;;;;;;;;;-2.77;73.28;100112.05;1783666;78;21298;-78
2021/12/08 09:24:23;;;;;;;;;;;;;;;-2.79;73.23;100116.93;1810567;78;20814;-78
2021/12/08 09:26:52;;;;;;;;;;;;;;;-2.62;72.74;100104.04;1807947;78;20112;-79
2021/12/08 09:29:21;;;;;;;;;;;;;;;-2.70;72.67;100106.16;1808866;77;20293;-78
2021/12/08 09:31:54;;;;;;;;;;;;;;;-2.75;72.52;100108.10;1805147;78;20215;-78
2021/12/08 09:34:25;;;;;;;;;;;;;;;-2.79;72.64;100098.84;1811377;78;20537;-78
2021/12/08 09:36:53;;;;;;;;;;;;;;;-2.73;72.87;100092.09;1813467;78;20593;-79
2021/12/08 09:39:28;;;;;;;;;;;;;;;-2.62;72.87;100091.11;1807535;78;20112;-79
2021/12/08 09:42:06;;;;;;;;;;;;;;;-2.71;72.98;100086.38;1811654;78;21303;-79
2021/12/08 09:44:35;;;;;;;;;;;;;;;-2.89;73.48;100078.59;1811058;78;20164;-79
2021/12/08 09:47:06;;;;;;;;;;;;;;;-2.94;73.77;100081.83;1814660;78;21041;-78
2021/12/08 09:49:34;;;;;;;;;;;;;;;-2.73;73.60;100080.46;1808163;78;20141;-78
2021/12/08 09:52:00;;;;;;;;;;;;;;;-2.63;73.50;100071.33;1806813;78;20172;-82
2021/12/08 09:54:26;;;;;;;;;;;;;;;-2.69;73.36;100074.21;1780618;78;20277;-77
2021/12/08 09:56:53;;;;;;;;;;;;;;;-2.73;73.53;100064.95;1809744;78;20142;-77
2021/12/08 09:59:23;;;;;;;;;;;;;;;-2.57;73.60;100058.11;1808105;78;21107;-78
2021/12/08 10:01:51;;;;;;;;;;;;;;;-2.53;73.56;100063.53;1809514;78;20471;-78
2021/12/08 10:04:16;;;;;;;;;;;;;;;-2.54;73.50;100054.55;1810264;78;20600;-77
2021/12/08 10:06:49;;;;;;;;;;;;;;;-2.36;74.29;100048.94;1804453;78;20125;-77
2021/12/08 10:09:13;;;;;;;;;;;;;;;-2.33;73.64;100048.80;1813445;78;20129;-78
2021/12/08 10:11:41;;;;;;;;;;;;;;;-2.32;73.44;100033.63;1820835;77;21122;-78
2021/12/08 10:14:07;;;;;;;;;;;;;;;-2.25;73.29;100044.06;1822379;77;20111;-81
2021/12/08 10:16:36;;;;;;;;;;;;;;;-2.10;73.33;100041.14;1820558;77;20509;-78
2021/12/08 10:19:02;;;;;;;;;;;;;;;-2.04;72.86;100040.00;1800343;77;20137;-78
2021/12/08 10:21:39;;;;;;;;;;;;;;;-2.09;72.59;100040.70;1812073;78;20163;-77
2021/12/08 10:24:27;;;;;;;;;;;;;;;-1.98;72.78;100042.27;1813302;78;20160;-76
2021/12/08 10:27:03;;;;;;;;;;;;;;;-2.00;72.50;100042.36;1811224;78;20481;-80
2021/12/08 10:29:31;;;;;;;;;;;;;;;-2.01;72.41;100042.43;1808613;78;20127;-77
2021/12/08 10:32:00;;;;;;;;;;;;;;;-1.93;72.47;100051.92;1814385;78;20462;-78
2021/12/08 10:34:34;;;;;;;;;;;;;;;-2.06;72.64;100052.19;1810692;77;20165;-81
2021/12/08 10:37:02;;;;;;;;;;;;;;;-1.90;72.42;100066.00;1802861;78;20459;-79
2021/12/08 10:39:33;;;;;;;;;;;;;;;-1.85;72.64;100066.63;1781906;78;20155;-83
2021/12/08 10:42:18;;;;;;;;;;;;;;;-1.85;72.78;100060.59;1774632;78;20176;-80
2021/12/08 10:47:55;;;;;;;;;;;;;;;-2.21;73.31;100054.61;1813699;78;20178;-81
2021/12/08 10:56:03;;;;;;;;;;;;;;;-1.90;73.65;100050.47;1813053;78;20124;-78
2021/12/08 10:58:33;;;;;;;;;;;;;;;-1.86;73.41;100046.82;1807026;78;20822;-78
2021/12/08 11:01:16;;;;;;;;;;;;;;;-1.75;73.29;100045.44;1808845;78;20172;-77
2021/12/08 11:03:41;;;;;;;;;;;;;;;-1.67;73.28;100034.22;1812583;78;20153;-77
2021/12/08 11:06:06;;;;;;;;;;;;;;;-1.60;73.19;100023.92;1796902;78;20133;-78
2021/12/08 11:08:36;;;;;;;;;;;;;;;-1.70;73.15;100024.02;1808122;78;20504;-78
2021/12/08 11:11:20;;;;;;;;;;;;;;;-1.91;73.55;100011.73;1819339;78;20691;-77
2021/12/08 11:13:47;;;;;;;;;;;;;;;-1.79;73.44;100014.97;1813819;78;20128;-78
2021/12/08 11:16:20;;;;;;;;;;;;;;;-1.97;73.73;100013.34;1809426;78;21135;-80
2021/12/08 11:18:53;;;;;;;;;;;;;;;-1.93;73.78;100016.98;1810819;78;20101;-80
2021/12/08 11:21:25;;;;;;;;;;;;;;;-1.79;73.73;100015.45;1801479;78;20510;-77
2021/12/08 11:23:53;;;;;;;;;;;;;;;-1.79;73.69;100015.45;1813460;78;20153;-79
2021/12/08 11:26:33;;;;;;;;;;;;;;;-1.75;73.65;100009.20;1818277;77;20261;-79
2021/12/08 11:29:13;;;;;;;;;;;;;;;-1.78;73.67;100008.06;1821408;77;20196;-79
2021/12/08 11:31:49;;;;;;;;;;;;;;;-1.76;73.69;100016.58;1799470;77;20137;-78
2021/12/08 11:34:30;;;;;;;;;;;;;;;-1.72;73.64;100002.09;1806728;78;20199;-78
2021/12/08 11:37:00;;;;;;;;;;;;;;;-1.77;73.64;99995.48;1809808;78;20784;-78
2021/12/08 11:39:32;;;;;;;;;;;;;;;-1.78;73.70;99988.66;1802477;78;20168;-78
2021/12/08 11:42:12;;;;;;;;;;;;;;;-1.72;73.84;99988.33;1811789;77;21249;-79
2021/12/08 11:44:41;;;;;;;;;;;;;;;-1.71;73.84;99974.45;1803349;78;20597;-78
2021/12/08 11:47:15;;;;;;;;;;;;;;;-1.63;73.69;99972.30;1816807;78;21063;-78
2021/12/08 11:49:44;;;;;;;;;;;;;;;-1.56;73.28;99971.03;1810557;78;20166;-77
2021/12/08 11:52:13;;;;;;;;;;;;;;;-1.54;73.25;99969.22;1811642;78;20139;-78
2021/12/08 11:54:44;;;;;;;;;;;;;;;-1.50;73.08;99966.81;1811330;78;20147;-79
2021/12/08 11:57:17;;;;;;;;;;;;;;;-1.36;72.87;99957.47;1804181;78;20125;-80
2021/12/08 11:59:49;;;;;;;;;;;;;;;-1.34;72.69;99957.73;1807252;78;20330;-82
2021/12/08 12:02:21;;;;;;;;;;;;;;;-1.51;73.31;99963.02;1799564;79;20170;-77
2021/12/08 12:04:48;;;;;;;;;;;;;;;-1.39;73.06;99964.94;1809752;78;20160;-78
2021/12/08 12:07:14;;;;;;;;;;;;;;;-1.48;72.96;99963.67;1809542;78;20609;-78
2021/12/08 12:09:41;;;;;;;;;;;;;;;-1.34;73.03;99956.91;1813656;77;20262;-78
2021/12/08 12:12:07;;;;;;;;;;;;;;;-1.26;72.99;99957.31;1818477;78;20131;-79
2021/12/08 12:14:33;;;;;;;;;;;;;;;-1.32;72.97;99945.56;1813415;78;20192;-78
2021/12/08 12:17:00;;;;;;;;;;;;;;;-1.18;72.91;99937.02;1807779;78;20848;-80
2021/12/08 12:19:28;;;;;;;;;;;;;;;-1.07;72.79;99929.08;1812420;78;20103;-79
2021/12/08 12:22:03;;;;;;;;;;;;;;;-1.03;72.92;99926.69;1812353;78;20108;-79
2021/12/08 12:24:39;;;;;;;;;;;;;;;-0.95;72.66;99921.45;1810610;78;20112;-80
2021/12/08 12:27:28;;;;;;;;;;;;;;;-0.90;72.46;99926.38;1807284;77;20802;-79
2021/12/08 12:30:14;;;;;;;;;;;;;;;-0.82;72.36;99923.34;1795717;78;20208;-79
2021/12/08 12:32:43;;;;;;;;;;;;;;;-0.74;72.08;99931.03;1819827;78;21793;-79
2021/12/08 12:35:24;;;;;;;;;;;;;;;-0.67;71.93;99937.16;1821683;77;20188;-80
2021/12/08 12:38:06;;;;;;;;;;;;;;;-0.65;71.77;99934.00;1790389;78;20433;-80
2021/12/08 12:40:38;;;;;;;;;;;;;;;-0.60;71.79;99941.06;1811555;78;20181;-79
2021/12/08 12:43:04;;;;;;;;;;;;;;;-0.56;71.54;99939.94;1805519;77;20129;-79
2021/12/08 12:45:38;;;;;;;;;;;;;;;-0.61;71.61;99940.69;1803721;78;21047;-80
2021/12/08 12:48:10;;;;;;;;;;;;;;;-0.48;71.42;99932.56;1811517;78;20157;-79
2021/12/08 12:51:00;;;;;;;;;;;;;;;-0.40;71.15;99939.42;1805751;78;20162;-79
2021/12/08 12:53:41;;;;;;;;;;;;;;;-0.37;70.68;99935.34;1808892;78;20696;-79
2021/12/08 12:56:15;;;;;;;;;;;;;;;-0.27;70.49;99941.28;1788319;78;20534;-77
2021/12/08 12:58:49;;;;;;;;;;;;;;;-0.14;70.44;99944.82;1781013;77;22066;-78
2021/12/08 13:01:22;;;;;;;;;;;;;;;-0.07;70.12;99934.89;1771410;78;20147;-78
2021/12/08 13:03:54;;;;;;;;;;;;;;;-0.19;70.33;99936.45;1805017;78;20211;-78
2021/12/08 13:06:40;;;;;;;;;;;;;;;-0.14;70.21;99934.44;1802031;78;20125;-78
2021/12/08 13:09:07;;;;;;;;;;;;;;;-0.11;69.93;99927.77;1802077;78;20156;-81
2021/12/08 13:14:23;;;;;;;;;;;;;;;-0.01;68.96;99940.53;1749630;80;20162;-79
2021/12/08 13:16:52;;;;;;;;;;;;;;;0.05;68.91;99937.19;1800554;78;20099;-79
2021/12/08 13:19:18;;;;;;;;;;;;;;;0.15;68.50;99929.21;1795876;78;21280;-78
2021/12/08 13:21:47;;;;;;;;;;;;;;;0.15;68.37;99927.91;1798755;78;20163;-78
2021/12/08 13:24:33;;;;;;;;;;;;;;;0.24;68.64;99920.84;1806970;78;21141;-78
2021/12/08 13:27:07;;;;;;;;;;;;;;;0.35;68.06;99921.00;1803555;78;20149;-79
2021/12/08 13:29:46;;;;;;;;;;;;;;;0.31;67.42;99921.29;1790069;79;20162;-79
2021/12/08 13:32:16;;;;;;;;;;;;;;;0.42;67.10;99931.01;1796796;77;20154;-83
2021/12/08 13:34:46;;;;;;;;;;;;;;;0.41;66.96;99929.36;1799783;78;20174;-82
2021/12/08 13:37:25;;;;;;;;;;;;;;;0.56;66.33;99935.33;1807402;77;20676;-80
2021/12/08 13:39:57;;;;;;;;;;;;;;;0.42;66.53;99928.41;1801336;77;20171;-81